createdAt,value
2019-02-22T00:03:11.117Z,6.9
2019-02-22T00:13:16.074Z,7
2019-02-22T00:18:18.511Z,7
2019-02-22T00:23:20.946Z,7
2019-02-22T00:28:23.424Z,7
2019-02-22T00:33:25.853Z,7.1
2019-02-22T00:38:28.313Z,7
2019-02-22T00:43:30.784Z,7
2019-02-22T00:48:33.239Z,7
2019-02-22T00:53:35.702Z,7
2019-02-22T00:58:38.287Z,7
2019-02-22T01:03:40.657Z,7.1
2019-02-22T01:08:43.052Z,7.1
2019-02-22T01:13:45.513Z,7.1
2019-02-22T01:18:48.042Z,7
2019-02-22T01:23:50.460Z,7
2019-02-22T01:33:55.349Z,7
2019-02-22T01:38:57.828Z,7.1
2019-02-22T01:44:00.262Z,7.1
2019-02-22T01:49:02.796Z,7.1
2019-02-22T01:54:05.187Z,7.1
2019-02-22T01:59:07.661Z,7.2
2019-02-22T02:04:10.140Z,7.2
2019-02-22T02:09:12.597Z,7.1
2019-02-22T02:14:15.068Z,7.1
2019-02-22T02:19:17.502Z,7.1
2019-02-22T02:24:20.099Z,7.1
2019-02-22T02:29:22.468Z,7.1
2019-02-22T02:34:24.876Z,7.1
2019-02-22T02:39:27.358Z,7.1
2019-02-22T02:44:29.808Z,7.1
2019-02-22T02:49:32.370Z,7.1
2019-02-22T02:54:34.777Z,7.1
2019-02-22T02:59:37.199Z,7.1
2019-02-22T03:04:39.668Z,7.1
2019-02-22T03:09:42.081Z,7.1
2019-02-22T03:14:44.620Z,7.1
2019-02-22T03:19:46.995Z,7.1
2019-02-22T03:24:49.458Z,7.2
2019-02-22T03:29:51.950Z,7.2
2019-02-22T03:34:54.432Z,7.2
2019-02-22T03:39:56.946Z,7.2
2019-02-22T03:44:59.287Z,7.2
2019-02-22T03:50:06.742Z,7.2
2019-02-22T03:55:04.205Z,7.2
2019-02-22T04:00:06.737Z,7.2
2019-02-22T04:05:09.149Z,7.2
2019-02-22T04:10:11.591Z,7.1
2019-02-22T04:15:14.047Z,7.1
2019-02-22T04:20:16.534Z,7.1
2019-02-22T04:25:19.000Z,7.2
2019-02-22T04:30:21.415Z,7.2
2019-02-22T04:35:24.199Z,7.2
2019-02-22T04:40:26.375Z,7.2
2019-02-22T04:45:28.846Z,7.2
2019-02-22T04:50:31.338Z,7.2
2019-02-22T04:55:33.715Z,7.2
2019-02-22T05:00:36.292Z,7.2
2019-02-22T05:05:38.649Z,7.2
2019-02-22T05:10:41.090Z,7.1
2019-02-22T05:15:43.564Z,7.1
2019-02-22T05:20:46.014Z,7.1
2019-02-22T05:25:48.595Z,7.1
2019-02-22T05:30:50.957Z,7.1
2019-02-22T05:35:53.437Z,7.2
2019-02-22T05:40:55.846Z,7.1
2019-02-22T05:45:58.358Z,7.1
2019-02-22T05:51:00.740Z,7.1
2019-02-22T05:56:03.195Z,7
2019-02-22T06:01:06.687Z,7
2019-02-22T06:06:08.500Z,7
2019-02-22T06:16:13.029Z,6.9
2019-02-22T06:21:15.622Z,6.9
2019-02-22T06:26:17.989Z,6.9
2019-02-22T06:31:20.420Z,6.8
2019-02-22T06:36:22.870Z,6.8
2019-02-22T06:41:25.357Z,6.8
2019-02-22T06:46:27.962Z,6.7
2019-02-22T06:51:30.233Z,6.7
2019-02-22T06:56:32.729Z,6.7
2019-02-22T07:01:35.159Z,6.7
2019-02-22T07:06:37.922Z,6.6
2019-02-22T07:11:40.079Z,6.7
2019-02-22T07:16:42.529Z,6.6
2019-02-22T07:21:52.315Z,6.6
2019-02-22T07:26:47.496Z,6.6
2019-02-22T07:31:49.945Z,6.6
2019-02-22T07:36:52.368Z,6.6
2019-02-22T07:41:54.832Z,6.7
2019-02-22T07:46:57.286Z,6.7
2019-02-22T07:51:59.777Z,6.7
2019-02-22T07:57:02.246Z,6.8
2019-02-22T08:02:04.710Z,7
2019-02-22T08:07:07.134Z,7
2019-02-22T08:12:09.605Z,7
2019-02-22T08:17:14.582Z,7
2019-02-22T08:22:14.524Z,7
2019-02-22T08:27:16.958Z,6.9
2019-02-22T08:32:19.492Z,6.9
2019-02-22T08:37:21.883Z,6.8
2019-02-22T08:42:24.333Z,6.8
2019-02-22T08:47:26.798Z,6.9
2019-02-22T08:52:29.286Z,6.9
2019-02-22T08:57:31.759Z,6.9
2019-02-22T09:02:34.177Z,6.8
2019-02-22T09:07:36.738Z,6.8
2019-02-22T09:12:39.163Z,6.7
2019-02-22T09:17:41.702Z,6.6
2019-02-22T09:22:44.025Z,6.3
2019-02-22T09:27:46.535Z,6.1
2019-02-22T09:32:49.079Z,6
2019-02-22T09:37:51.483Z,5.9
2019-02-22T09:42:53.877Z,5.8
2019-02-22T09:47:56.301Z,5.8
2019-02-22T09:52:58.755Z,5.8
2019-02-22T09:58:01.278Z,5.7
2019-02-22T10:03:03.674Z,5.6
2019-02-22T10:08:06.175Z,5.6
2019-02-22T10:13:08.615Z,5.6
2019-02-22T10:18:11.107Z,5.6
2019-02-22T10:23:13.522Z,5.6
2019-02-22T10:28:17.959Z,5.6
2019-02-22T10:33:18.416Z,5.7
2019-02-22T10:38:20.891Z,5.7
2019-02-22T10:43:23.361Z,5.7
2019-02-22T10:53:28.279Z,5.7
2019-02-22T10:58:30.786Z,6.1
2019-02-22T11:03:33.170Z,6.4
2019-02-22T11:08:35.644Z,6.6
2019-02-22T11:13:38.088Z,6.6
2019-02-22T11:18:40.557Z,6.4
2019-02-22T11:23:43.050Z,6.2
2019-02-22T11:28:45.493Z,6.1
2019-02-22T11:33:47.915Z,6
2019-02-22T11:38:50.424Z,5.9
2019-02-22T11:43:52.840Z,5.8
2019-02-22T11:48:55.305Z,5.8
2019-02-22T11:53:57.793Z,5.7
2019-02-22T11:59:00.214Z,5.6
2019-02-22T12:04:02.764Z,5.5
2019-02-22T12:09:05.145Z,5.4
2019-02-22T12:14:07.638Z,5.3
2019-02-22T12:19:10.028Z,5.2
2019-02-22T12:24:12.515Z,5.2
2019-02-22T12:29:14.959Z,5.2
2019-02-22T12:34:17.446Z,5.2
2019-02-22T12:39:19.954Z,5.2
2019-02-22T12:44:22.317Z,5.1
2019-02-22T12:49:24.783Z,5.1
2019-02-22T12:54:27.232Z,5.3
2019-02-22T12:59:29.834Z,5.5
2019-02-22T13:04:32.283Z,5.6
2019-02-22T13:09:36.828Z,5.6
2019-02-22T13:14:37.059Z,5.5
2019-02-22T13:19:39.517Z,5.3
2019-02-22T13:24:41.970Z,5.2
2019-02-22T13:29:44.434Z,5.1
2019-02-22T13:34:46.937Z,5.1
2019-02-22T13:39:49.375Z,5.1
2019-02-22T13:44:51.870Z,5
2019-02-22T13:49:54.273Z,4.9
2019-02-22T13:54:56.794Z,4.7
2019-02-22T13:59:59.188Z,4.6
2019-02-22T14:05:01.797Z,4.4
2019-02-22T14:10:04.116Z,4.4
2019-02-22T14:15:06.568Z,4.4
2019-02-22T14:20:09.010Z,4.4
2019-02-22T14:25:11.591Z,4.3
2019-02-22T14:30:13.927Z,4.2
2019-02-22T14:35:16.534Z,4.2
2019-02-22T14:40:18.861Z,4.1
2019-02-22T14:45:21.321Z,4
2019-02-22T14:50:23.803Z,3.8
2019-02-22T14:55:26.222Z,3.7
2019-02-22T15:00:28.745Z,3.7
2019-02-22T15:05:31.198Z,3.6
2019-02-22T15:10:33.612Z,3.5
2019-02-22T15:15:36.124Z,3.5
2019-02-22T15:20:38.546Z,3.4
2019-02-22T15:25:41.036Z,3.3
2019-02-22T15:30:45.205Z,3.2
2019-02-22T15:35:45.973Z,3.1
2019-02-22T15:40:48.404Z,3.1
2019-02-22T15:45:50.897Z,3
2019-02-22T15:50:53.334Z,2.9
2019-02-22T15:55:55.789Z,2.9
2019-02-22T16:00:58.251Z,2.9
2019-02-22T16:06:00.719Z,2.8
2019-02-22T16:11:03.209Z,2.7
2019-02-22T16:16:05.646Z,2.7
2019-02-22T16:21:08.110Z,2.7
2019-02-22T16:26:10.579Z,2.6
2019-02-22T16:31:13.073Z,2.5
2019-02-22T16:36:15.510Z,2.4
2019-02-22T16:41:18.008Z,2.4
2019-02-22T16:46:20.561Z,2.3
2019-02-22T16:51:22.884Z,2.2
2019-02-22T16:56:25.467Z,2.1
2019-02-22T17:01:28.062Z,2.1
2019-02-22T17:06:30.292Z,2
2019-02-22T17:11:32.759Z,2
2019-02-22T17:16:45.184Z,2
2019-02-22T17:21:37.724Z,2
2019-02-22T17:26:40.152Z,2
2019-02-22T17:31:42.634Z,1.9
2019-02-22T17:36:45.087Z,1.9
2019-02-22T17:41:47.577Z,1.7
2019-02-22T17:46:57.509Z,1.7
2019-02-22T17:51:52.479Z,1.5
2019-02-22T17:56:54.980Z,1.4
2019-02-22T18:01:57.505Z,1.4
2019-02-22T18:06:59.888Z,1.3
2019-02-22T18:12:02.399Z,1.3
2019-02-22T18:17:08.252Z,1.2
2019-02-22T18:22:07.302Z,1
2019-02-22T18:27:09.756Z,0.9
2019-02-22T18:32:12.218Z,0.8
2019-02-22T18:37:14.641Z,0.8
2019-02-22T18:42:17.152Z,0.8
2019-02-22T18:47:19.956Z,0.9
2019-02-22T18:52:22.069Z,0.9
2019-02-22T18:57:24.528Z,0.9
2019-02-22T19:02:26.943Z,0.9
2019-02-22T19:07:29.403Z,0.9
2019-02-22T19:12:31.860Z,0.8
2019-02-22T19:22:36.778Z,0.7
2019-02-22T19:27:39.247Z,0.7
2019-02-22T19:32:41.751Z,0.6
2019-02-22T19:37:44.206Z,0.5
2019-02-22T19:42:46.669Z,0.2
2019-02-22T19:47:49.112Z,0.1
2019-02-22T19:52:51.585Z,655.26
2019-02-22T19:57:54.006Z,655.16
2019-02-22T20:02:56.502Z,655.26
2019-02-22T20:07:58.934Z,0
2019-02-22T20:13:01.433Z,0
2019-02-22T20:18:03.844Z,655.26
2019-02-22T20:23:06.310Z,655.06
2019-02-22T20:28:08.791Z,654.86
2019-02-22T20:33:11.245Z,654.66
2019-02-22T20:38:13.690Z,654.46
2019-02-22T20:43:16.167Z,654.36
2019-02-22T20:48:18.582Z,654.26
2019-02-22T20:53:21.033Z,653.96
2019-02-22T20:58:23.544Z,653.96
2019-02-22T21:03:25.977Z,653.76
2019-02-22T21:08:28.415Z,653.66
2019-02-22T21:13:30.944Z,653.56
2019-02-22T21:18:33.331Z,653.46
2019-02-22T21:23:35.829Z,653.46
2019-02-22T21:33:40.686Z,653.26
2019-02-22T21:38:43.163Z,653.16
2019-02-22T21:43:45.622Z,653.06
2019-02-22T21:48:48.109Z,653.06
2019-02-22T21:53:50.598Z,652.96
2019-02-22T22:49:17.563Z,652.36
2019-02-22T22:54:19.999Z,652.46
2019-02-22T22:59:22.466Z,652.36
2019-02-22T23:04:24.924Z,652.36
2019-02-22T23:09:27.380Z,652.46
2019-02-22T23:14:29.897Z,652.46
2019-02-22T23:19:32.316Z,652.46
2019-02-22T23:24:34.778Z,652.46
2019-02-22T23:29:37.203Z,652.46
2019-02-22T23:34:39.701Z,652.36
2019-02-22T23:39:42.120Z,652.26
2019-02-22T23:44:44.576Z,652.36
2019-02-22T23:49:47.029Z,652.26
2019-02-22T23:54:49.482Z,652.16
2019-02-22T23:59:51.945Z,651.96
